Time;durP1;ratioP1;P1;durP2;ratioP2;P2;SDS_P1;SDS_P2;PMS_P1;PMS_P2;Temp;Humidity;BMP_temperature;BMP_pressure;BME280_temperature;BME280_humidity;BME280_pressure;Samples;Min_cycle;Max_cycle;Signal;HPM_P1;HPM_P2
2022/08/12 00:43:44;;;;;;;;;16.75;15.00;;;;;;;;5060698;28;8867;-76
2022/08/12 00:48:58;;;;;;;;;16.00;14.50;;;;;;;;5061131;28;8839;-78
2022/08/12 00:52:04;;;;;;;;;16.00;16.00;;;;;;;;5064141;28;9327;-76
2022/08/12 00:54:14;;;;;;;;;14.75;13.25;;;;;;;;5062264;28;8866;-76
2022/08/12 00:56:42;;;;;;;;;14.25;14.00;;;;;;;;5058892;28;8890;-79
2022/08/12 00:59:10;;;;;;;;;13.00;13.00;;;;;;;;5065994;28;8953;-76
2022/08/12 01:01:38;;;;;;;;;12.75;12.50;;;;;;;;5059712;28;8843;-77
2022/08/12 01:12:30;;;;;;;;;15.50;13.75;;;;;;;;5064492;28;8851;-76
2022/08/12 01:14:57;;;;;;;;;12.25;11.25;;;;;;;;5063780;28;8870;-77
2022/08/12 01:17:25;;;;;;;;;14.25;14.00;;;;;;;;5060627;28;8899;-77
2022/08/12 01:19:56;;;;;;;;;15.33;15.33;;;;;;;;5064600;28;8874;-78
2022/08/12 01:22:26;;;;;;;;;13.00;13.00;;;;;;;;5051403;28;8966;-77
2022/08/12 01:25:04;;;;;;;;;15.00;14.00;;;;;;;;5057641;28;9072;-77
2022/08/12 01:27:34;;;;;;;;;12.00;9.33;;;;;;;;5056725;28;9025;-76
2022/08/12 01:30:05;;;;;;;;;13.75;13.75;;;;;;;;5058259;28;8934;-78
2022/08/12 01:32:36;;;;;;;;;13.50;13.50;;;;;;;;5055008;28;9002;-78
2022/08/12 01:35:10;;;;;;;;;15.25;15.25;;;;;;;;5058716;28;8882;-78
2022/08/12 01:37:46;;;;;;;;;15.33;14.33;;;;;;;;5057952;28;8858;-78
2022/08/12 01:40:16;;;;;;;;;15.00;15.00;;;;;;;;5055831;28;8978;-78
2022/08/12 01:42:49;;;;;;;;;13.00;13.00;;;;;;;;5052307;28;8949;-78
2022/08/12 01:45:23;;;;;;;;;12.25;12.25;;;;;;;;5058513;28;9747;-78
2022/08/12 01:48:01;;;;;;;;;15.75;15.75;;;;;;;;5061827;28;9759;-77
2022/08/12 01:50:38;;;;;;;;;15.00;15.00;;;;;;;;5056961;28;8873;-77
2022/08/12 01:53:10;;;;;;;;;12.67;12.67;;;;;;;;5064150;28;8851;-78
2022/08/12 01:55:40;;;;;;;;;16.00;15.25;;;;;;;;5058305;28;8860;-78
2022/08/12 01:58:16;;;;;;;;;16.00;16.00;;;;;;;;5063457;28;9636;-78
2022/08/12 02:00:51;;;;;;;;;16.33;15.00;;;;;;;;5046752;28;8779;-78
2022/08/12 02:12:26;;;;;;;;;16.33;15.67;;;;;;;;5060255;28;8847;-77
2022/08/12 02:15:01;;;;;;;;;13.33;13.33;;;;;;;;5064185;28;9022;-78
2022/08/12 02:17:45;;;;;;;;;13.75;13.75;;;;;;;;5058394;28;9026;-78
2022/08/12 02:20:20;;;;;;;;;16.67;15.33;;;;;;;;5063527;28;8851;-77
2022/08/12 02:22:48;;;;;;;;;16.67;13.33;;;;;;;;5057524;28;8973;-77
2022/08/12 02:25:18;;;;;;;;;16.00;15.25;;;;;;;;5055755;28;8961;-77
2022/08/12 02:27:50;;;;;;;;;16.00;16.00;;;;;;;;5065743;28;8912;-77
2022/08/12 02:30:19;;;;;;;;;12.25;12.25;;;;;;;;5063937;28;8916;-78
2022/08/12 02:32:49;;;;;;;;;14.00;14.00;;;;;;;;5062830;28;8873;-77
2022/08/12 02:35:21;;;;;;;;;14.00;14.00;;;;;;;;5060074;28;9726;-77
2022/08/12 02:37:51;;;;;;;;;15.00;15.00;;;;;;;;5065282;28;8932;-77
2022/08/12 02:40:19;;;;;;;;;15.33;15.33;;;;;;;;5061434;28;9090;-77
2022/08/12 02:42:52;;;;;;;;;14.50;14.50;;;;;;;;5063387;28;9081;-77
2022/08/12 02:45:24;;;;;;;;;13.75;12.00;;;;;;;;5060757;28;8887;-77
2022/08/12 02:47:52;;;;;;;;;16.33;16.00;;;;;;;;5065096;28;9629;-77
2022/08/12 02:50:22;;;;;;;;;14.00;14.00;;;;;;;;5063829;28;9101;-78
2022/08/12 02:52:51;;;;;;;;;16.00;14.00;;;;;;;;5062945;28;9024;-77
2022/08/12 02:55:21;;;;;;;;;15.00;15.00;;;;;;;;5065291;28;9135;-77
2022/08/12 02:57:51;;;;;;;;;18.00;16.00;;;;;;;;5064482;28;10187;-76
2022/08/12 03:00:18;;;;;;;;;15.00;15.00;;;;;;;;5064504;28;9351;-76
2022/08/12 03:02:47;;;;;;;;;13.67;13.67;;;;;;;;5064619;28;9274;-77
2022/08/12 03:05:15;;;;;;;;;16.67;16.67;;;;;;;;5061691;28;9171;-77
2022/08/12 03:07:50;;;;;;;;;15.00;14.67;;;;;;;;5061140;28;9213;-76
2022/08/12 03:10:23;;;;;;;;;13.00;13.00;;;;;;;;5064291;28;9185;-77
2022/08/12 03:12:52;;;;;;;;;15.00;14.00;;;;;;;;5062591;28;9282;-76
2022/08/12 03:15:22;;;;;;;;;9.00;9.00;;;;;;;;5064833;28;9253;-76
2022/08/12 03:17:53;;;;;;;;;18.67;18.67;;;;;;;;5061122;28;9996;-77
2022/08/12 03:20:22;;;;;;;;;18.00;16.00;;;;;;;;5063282;28;9156;-78
2022/08/12 03:22:50;;;;;;;;;16.00;16.00;;;;;;;;5062919;28;9221;-77
2022/08/12 03:25:23;;;;;;;;;16.33;16.33;;;;;;;;5064844;28;9118;-76
2022/08/12 03:27:55;;;;;;;;;15.67;15.67;;;;;;;;5062014;28;9878;-77
2022/08/12 03:30:25;;;;;;;;;16.00;16.00;;;;;;;;5063167;28;9004;-76
2022/08/12 03:32:54;;;;;;;;;12.67;11.00;;;;;;;;5064666;28;9347;-78
2022/08/12 03:35:26;;;;;;;;;16.00;16.00;;;;;;;;5041194;28;9233;-76
2022/08/12 03:37:56;;;;;;;;;16.67;13.67;;;;;;;;5065252;28;9167;-77
2022/08/12 04:02:41;;;;;;;;;14.00;14.00;;;;;;;;5062937;28;9391;-77
2022/08/12 04:05:12;;;;;;;;;14.25;13.00;;;;;;;;5064171;28;9418;-76
2022/08/12 04:07:40;;;;;;;;;16.00;16.00;;;;;;;;5066341;28;9467;-77
2022/08/12 04:10:08;;;;;;;;;15.50;15.50;;;;;;;;5064083;28;9616;-77
2022/08/12 04:15:26;;;;;;;;;14.25;12.25;;;;;;;;5063656;28;9512;-77
2022/08/12 04:17:54;;;;;;;;;14.50;14.50;;;;;;;;5063385;28;9777;-77
2022/08/12 04:20:21;;;;;;;;;16.00;16.00;;;;;;;;5059552;28;9643;-77
2022/08/12 04:22:50;;;;;;;;;16.75;16.75;;;;;;;;5062944;28;9708;-77
2022/08/12 04:25:17;;;;;;;;;16.00;16.00;;;;;;;;5063477;28;9878;-77
2022/08/12 04:27:45;;;;;;;;;17.75;15.75;;;;;;;;5060049;28;9804;-78
2022/08/12 04:30:13;;;;;;;;;14.75;14.75;;;;;;;;5059098;28;10566;-77
2022/08/12 04:32:42;;;;;;;;;16.75;14.75;;;;;;;;5054770;28;10667;-77
2022/08/12 04:35:10;;;;;;;;;17.25;15.25;;;;;;;;5060714;28;9892;-77
2022/08/12 04:37:38;;;;;;;;;16.00;16.00;;;;;;;;5061289;28;10067;-78
2022/08/12 04:40:08;;;;;;;;;16.00;16.00;;;;;;;;5061125;28;10082;-77
2022/08/12 04:42:35;;;;;;;;;18.75;18.75;;;;;;;;5058919;28;10049;-77
2022/08/12 04:45:03;;;;;;;;;17.75;16.50;;;;;;;;5062404;28;10096;-77
2022/08/12 04:47:31;;;;;;;;;16.25;16.25;;;;;;;;5062894;28;10137;-77
2022/08/12 04:50:00;;;;;;;;;15.50;15.50;;;;;;;;5060875;28;10107;-77
2022/08/12 04:52:27;;;;;;;;;19.00;17.00;;;;;;;;5062658;28;10231;-78
2022/08/12 04:54:54;;;;;;;;;17.50;17.50;;;;;;;;5060985;28;10821;-77
2022/08/12 04:57:22;;;;;;;;;19.50;19.50;;;;;;;;5061671;28;10103;-76
2022/08/12 04:59:49;;;;;;;;;17.00;17.00;;;;;;;;5061766;28;10121;-78
2022/08/12 05:02:18;;;;;;;;;19.50;19.50;;;;;;;;5059645;28;10106;-78
2022/08/12 05:04:47;;;;;;;;;16.00;16.00;;;;;;;;5059318;28;10108;-78
2022/08/12 05:07:16;;;;;;;;;19.75;19.50;;;;;;;;5059598;28;10192;-78
2022/08/12 05:09:44;;;;;;;;;20.00;20.00;;;;;;;;5061019;28;9987;-74
2022/08/12 05:12:12;;;;;;;;;17.25;17.25;;;;;;;;5058632;28;10012;-76
2022/08/12 05:14:39;;;;;;;;;17.00;17.00;;;;;;;;5070963;28;10197;-73
2022/08/12 05:17:08;;;;;;;;;21.00;18.75;;;;;;;;5060434;28;10033;-77
2022/08/12 05:19:35;;;;;;;;;15.75;15.75;;;;;;;;5064673;28;9982;-75
2022/08/12 05:22:03;;;;;;;;;20.25;20.00;;;;;;;;5063681;28;9954;-76
2022/08/12 05:24:32;;;;;;;;;17.25;17.00;;;;;;;;5065982;28;10843;-75
2022/08/12 05:27:00;;;;;;;;;20.50;16.00;;;;;;;;5069057;28;9852;-76
2022/08/12 05:29:28;;;;;;;;;18.75;18.25;;;;;;;;5070246;28;9751;-75
2022/08/12 05:31:56;;;;;;;;;12.50;9.75;;;;;;;;5061480;28;9607;-75
2022/08/12 05:34:24;;;;;;;;;18.75;18.75;;;;;;;;5068496;28;9672;-75
2022/08/12 05:36:51;;;;;;;;;22.33;20.67;;;;;;;;5065216;28;9505;-74
2022/08/12 05:39:19;;;;;;;;;14.00;14.00;;;;;;;;5063043;28;9516;-74
2022/08/12 05:41:48;;;;;;;;;22.67;17.00;;;;;;;;5065720;28;9204;-76
2022/08/12 05:44:16;;;;;;;;;15.33;15.00;;;;;;;;5065648;28;9339;-75
2022/08/12 05:46:43;;;;;;;;;15.33;15.33;;;;;;;;5064214;28;9281;-75
2022/08/12 05:49:11;;;;;;;;;16.00;16.00;;;;;;;;5066212;28;9121;-72
2022/08/12 05:51:39;;;;;;;;;16.33;16.33;;;;;;;;5064361;28;8937;-72
2022/08/12 05:54:07;;;;;;;;;14.67;14.67;;;;;;;;5069363;28;9042;-72
2022/08/12 05:56:35;;;;;;;;;12.25;12.25;;;;;;;;5068035;28;8956;-72
2022/08/12 05:59:06;;;;;;;;;15.00;15.00;;;;;;;;5063635;28;8887;-72
2022/08/12 06:01:34;;;;;;;;;18.25;17.00;;;;;;;;5065035;28;8854;-72
2022/08/12 06:04:01;;;;;;;;;10.75;10.00;;;;;;;;5066657;28;8870;-73
2022/08/12 06:06:34;;;;;;;;;17.25;16.00;;;;;;;;5065398;28;8891;-73
2022/08/12 06:09:01;;;;;;;;;14.00;14.00;;;;;;;;5064140;28;8843;-73
2022/08/12 06:11:29;;;;;;;;;14.25;13.00;;;;;;;;5066009;28;8910;-73
2022/08/12 06:13:57;;;;;;;;;16.50;14.75;;;;;;;;5064271;28;8956;-72
2022/08/12 06:16:26;;;;;;;;;14.00;14.00;;;;;;;;5069871;28;8964;-72
2022/08/12 06:18:54;;;;;;;;;15.50;15.00;;;;;;;;5064680;28;8932;-74
2022/08/12 06:21:22;;;;;;;;;14.00;12.00;;;;;;;;5066409;28;8933;-72
2022/08/12 06:23:50;;;;;;;;;15.00;15.00;;;;;;;;5067210;28;8883;-73
2022/08/12 06:26:19;;;;;;;;;14.75;14.75;;;;;;;;5064798;28;8855;-73
2022/08/12 06:28:49;;;;;;;;;14.50;14.25;;;;;;;;5064140;28;8878;-73
2022/08/12 06:31:17;;;;;;;;;14.75;14.75;;;;;;;;5066927;28;8884;-73
2022/08/12 06:33:47;;;;;;;;;14.00;14.00;;;;;;;;5065325;28;8991;-73
2022/08/12 06:36:16;;;;;;;;;15.00;13.25;;;;;;;;5065558;28;9319;-73
2022/08/12 06:38:44;;;;;;;;;14.25;14.25;;;;;;;;5064996;28;8888;-74
2022/08/12 06:43:57;;;;;;;;;14.50;14.50;;;;;;;;5066245;28;9433;-73
2022/08/12 06:46:26;;;;;;;;;16.75;15.50;;;;;;;;5062215;28;8870;-73
2022/08/12 06:48:57;;;;;;;;;15.25;15.25;;;;;;;;5066983;28;9730;-73
2022/08/12 06:51:26;;;;;;;;;18.25;16.75;;;;;;;;5064225;28;8866;-74
2022/08/12 06:53:55;;;;;;;;;16.25;14.25;;;;;;;;5064693;28;8862;-74
2022/08/12 06:56:23;;;;;;;;;15.00;13.25;;;;;;;;5065828;28;8874;-74
2022/08/12 06:58:50;;;;;;;;;14.50;14.50;;;;;;;;5067776;28;8858;-74
2022/08/12 07:01:17;;;;;;;;;13.75;13.75;;;;;;;;5062535;28;8849;-74
2022/08/12 07:03:44;;;;;;;;;14.00;13.00;;;;;;;;5065643;28;8886;-74
2022/08/12 07:06:13;;;;;;;;;14.75;14.75;;;;;;;;5061855;28;8878;-74
2022/08/12 07:08:42;;;;;;;;;11.75;11.75;;;;;;;;5064754;28;9005;-74
2022/08/12 07:11:12;;;;;;;;;11.25;11.25;;;;;;;;5061403;28;9593;-75
2022/08/12 07:13:43;;;;;;;;;13.00;13.00;;;;;;;;5060638;28;8869;-74
2022/08/12 07:16:12;;;;;;;;;11.75;11.75;;;;;;;;5061898;28;8932;-74
2022/08/12 07:18:42;;;;;;;;;12.50;12.50;;;;;;;;5062169;28;8894;-74
2022/08/12 07:21:13;;;;;;;;;11.00;11.00;;;;;;;;5062263;28;8913;-74
2022/08/12 07:23:43;;;;;;;;;12.00;12.00;;;;;;;;5065561;28;8894;-74
2022/08/12 07:26:15;;;;;;;;;13.50;13.00;;;;;;;;5063363;28;8875;-74
2022/08/12 07:28:44;;;;;;;;;13.60;12.60;;;;;;;;5062426;28;9036;-75
2022/08/12 07:31:13;;;;;;;;;12.60;11.80;;;;;;;;5062518;28;8830;-75
2022/08/12 07:33:42;;;;;;;;;14.60;13.00;;;;;;;;5063494;28;8889;-75
2022/08/12 07:36:12;;;;;;;;;14.60;13.20;;;;;;;;5067823;28;8899;-74
2022/08/12 07:38:45;;;;;;;;;11.80;11.80;;;;;;;;5060919;28;8890;-74
2022/08/12 07:41:16;;;;;;;;;12.80;12.80;;;;;;;;5065436;28;10167;-75
2022/08/12 07:43:45;;;;;;;;;13.20;13.20;;;;;;;;5066389;28;8899;-79
2022/08/12 07:46:15;;;;;;;;;13.40;13.40;;;;;;;;5062546;28;8878;-79
2022/08/12 07:48:44;;;;;;;;;13.60;13.60;;;;;;;;5069036;28;8880;-78
2022/08/12 07:51:13;;;;;;;;;11.40;11.40;;;;;;;;5064208;28;8868;-78
2022/08/12 07:53:42;;;;;;;;;11.80;11.80;;;;;;;;5063408;28;8866;-76
2022/08/12 07:56:10;;;;;;;;;11.80;11.80;;;;;;;;5065447;28;8861;-77
2022/08/12 07:58:39;;;;;;;;;10.80;10.80;;;;;;;;5067140;28;8969;-77
2022/08/12 08:01:10;;;;;;;;;13.80;13.80;;;;;;;;5061033;28;8775;-76
2022/08/12 08:03:37;;;;;;;;;12.80;11.00;;;;;;;;5061981;28;8866;-78
2022/08/12 08:06:15;;;;;;;;;12.20;12.20;;;;;;;;5065290;28;8864;-77
2022/08/12 08:08:43;;;;;;;;;12.60;12.60;;;;;;;;5063010;28;8859;-77
2022/08/12 08:14:00;;;;;;;;;12.00;12.00;;;;;;;;5062355;28;8874;-78
2022/08/12 08:16:28;;;;;;;;;12.80;12.20;;;;;;;;5062550;28;8989;-77
2022/08/12 08:18:58;;;;;;;;;11.80;11.80;;;;;;;;5062287;28;8877;-77
2022/08/12 08:21:34;;;;;;;;;12.60;10.40;;;;;;;;5063019;28;8862;-77
2022/08/12 08:24:15;;;;;;;;;11.40;11.00;;;;;;;;5063088;28;8846;-77
2022/08/12 08:26:43;;;;;;;;;11.00;11.00;;;;;;;;5064272;28;8940;-78
2022/08/12 08:29:11;;;;;;;;;10.80;10.80;;;;;;;;5063327;28;8858;-74
2022/08/12 08:31:42;;;;;;;;;8.00;8.00;;;;;;;;5060352;28;9599;-80
2022/08/12 08:34:09;;;;;;;;;8.60;8.60;;;;;;;;5057498;28;8830;-77
2022/08/12 08:36:38;;;;;;;;;7.60;7.60;;;;;;;;5062613;28;8855;-76
2022/08/12 08:39:07;;;;;;;;;10.00;10.00;;;;;;;;5062030;28;8855;-77
2022/08/12 08:44:19;;;;;;;;;10.20;10.20;;;;;;;;5061436;28;8839;-83
2022/08/12 08:46:48;;;;;;;;;9.00;8.00;;;;;;;;5061149;28;8901;-85
2022/08/12 08:49:16;;;;;;;;;7.00;7.00;;;;;;;;5061206;28;8879;-83
2022/08/12 08:51:45;;;;;;;;;9.20;9.20;;;;;;;;5060818;28;8855;-84
2022/08/12 08:54:14;;;;;;;;;9.00;9.00;;;;;;;;5060424;28;8889;-82
2022/08/12 08:56:48;;;;;;;;;8.20;8.20;;;;;;;;5069354;28;9731;-79
2022/08/12 08:59:18;;;;;;;;;7.40;7.40;;;;;;;;5063553;28;8863;-84
2022/08/12 09:01:46;;;;;;;;;11.00;11.00;;;;;;;;5066343;28;8941;-82
2022/08/12 09:04:14;;;;;;;;;9.20;9.00;;;;;;;;5063941;28;8851;-82
2022/08/12 09:06:42;;;;;;;;;8.00;8.00;;;;;;;;5063482;28;8908;-81
2022/08/12 09:09:10;;;;;;;;;8.00;8.00;;;;;;;;5067650;28;8874;-82
2022/08/12 09:14:23;;;;;;;;;8.80;8.80;;;;;;;;5064273;28;9636;-85
2022/08/12 09:16:51;;;;;;;;;9.00;9.00;;;;;;;;5063191;28;9674;-86
2022/08/12 09:19:18;;;;;;;;;10.00;10.00;;;;;;;;5069523;28;8893;-85
2022/08/12 09:21:52;;;;;;;;;9.60;9.60;;;;;;;;5065464;28;8885;-89
2022/08/12 09:24:19;;;;;;;;;6.80;6.80;;;;;;;;5066926;28;8872;-85
2022/08/12 09:26:53;;;;;;;;;8.00;8.00;;;;;;;;5066111;28;8863;-89
2022/08/12 09:29:20;;;;;;;;;6.00;6.00;;;;;;;;5070885;28;8890;-83
2022/08/12 09:31:51;;;;;;;;;9.00;9.00;;;;;;;;5063942;28;8817;-86
2022/08/12 09:34:18;;;;;;;;;8.80;8.80;;;;;;;;5065585;28;8879;-86
2022/08/12 09:36:46;;;;;;;;;8.00;8.00;;;;;;;;5065016;28;8873;-86
2022/08/12 09:39:13;;;;;;;;;4.40;4.40;;;;;;;;5067159;28;8981;-83
2022/08/12 09:45:19;;;;;;;;;8.40;8.40;;;;;;;;5068712;28;8917;-91
2022/08/12 09:47:15;;;;;;;;;6.00;6.00;;;;;;;;5030886;28;9652;-84
2022/08/12 09:49:42;;;;;;;;;6.80;6.80;;;;;;;;5067075;28;8928;-83
2022/08/12 09:58:07;;;;;;;;;8.00;6.40;;;;;;;;5240681;22;8668;-83
2022/08/12 10:00:36;;;;;;;;;7.80;7.80;;;;;;;;5004442;28;8806;-83
2022/08/12 10:03:09;;;;;;;;;5.00;5.00;;;;;;;;5001516;28;8987;-86
2022/08/12 10:05:42;;;;;;;;;7.00;7.00;;;;;;;;5005091;28;8876;-78
2022/08/12 10:08:10;;;;;;;;;6.60;6.60;;;;;;;;5005639;28;8868;-86
2022/08/12 10:13:40;;;;;;;;;5.00;5.00;;;;;;;;5000698;28;8832;-88
2022/08/12 10:13:41;;;;;;;;;5.60;5.60;;;;;;;;4999281;28;8871;-86
2022/08/12 10:16:11;;;;;;;;;4.20;4.20;;;;;;;;5005237;28;8876;-85
2022/08/12 10:18:40;;;;;;;;;6.00;6.00;;;;;;;;5003645;28;9031;-86
2022/08/12 10:21:13;;;;;;;;;7.00;6.20;;;;;;;;5005304;28;8871;-85
2022/08/12 10:24:28;;;;;;;;;6.00;6.00;;;;;;;;5002795;28;8872;-89
2022/08/12 10:29:48;;;;;;;;;5.00;5.00;;;;;;;;4988210;28;8973;-88
2022/08/12 10:32:22;;;;;;;;;5.00;5.00;;;;;;;;5002611;28;8824;-87
2022/08/12 10:34:50;;;;;;;;;4.40;4.40;;;;;;;;5005240;28;8876;-87
2022/08/12 10:40:10;;;;;;;;;3.60;3.60;;;;;;;;5168890;23;8902;-86
2022/08/12 10:45:24;;;;;;;;;4.60;4.60;;;;;;;;5000897;28;8874;-86
2022/08/12 10:47:53;;;;;;;;;4.20;4.20;;;;;;;;4998661;28;8877;-86
2022/08/12 10:50:21;;;;;;;;;6.00;6.00;;;;;;;;4995399;28;8890;-82
2022/08/12 10:52:48;;;;;;;;;5.00;5.00;;;;;;;;4995794;28;8926;-84
2022/08/12 10:55:17;;;;;;;;;5.40;5.40;;;;;;;;4992459;28;8893;-85
2022/08/12 10:57:45;;;;;;;;;5.00;5.00;;;;;;;;4994896;28;8895;-79
2022/08/12 11:00:13;;;;;;;;;6.00;6.00;;;;;;;;4995596;28;8882;-79
2022/08/12 11:02:53;;;;;;;;;6.80;6.80;;;;;;;;4996301;28;8860;-86
2022/08/12 11:05:21;;;;;;;;;6.00;6.00;;;;;;;;4998016;28;8982;-83
2022/08/12 11:07:49;;;;;;;;;7.20;5.60;;;;;;;;4997192;28;8997;-88
2022/08/12 11:10:17;;;;;;;;;5.40;5.40;;;;;;;;4999629;28;8888;-86
2022/08/12 11:12:49;;;;;;;;;7.20;6.60;;;;;;;;4996218;28;8892;-83
2022/08/12 11:15:22;;;;;;;;;8.60;7.00;;;;;;;;5004980;28;8988;-85
2022/08/12 11:17:49;;;;;;;;;5.00;5.00;;;;;;;;5003797;28;8868;-80
2022/08/12 11:20:16;;;;;;;;;7.60;7.00;;;;;;;;5000542;28;8960;-79
2022/08/12 11:23:00;;;;;;;;;4.80;4.80;;;;;;;;4988940;28;8855;-80
2022/08/12 11:25:27;;;;;;;;;6.40;6.40;;;;;;;;4989004;28;8908;-80
2022/08/12 11:27:55;;;;;;;;;5.00;5.00;;;;;;;;4996082;28;8892;-78
2022/08/12 11:30:22;;;;;;;;;8.20;6.80;;;;;;;;4989672;28;8876;-78
2022/08/12 11:32:50;;;;;;;;;4.60;4.60;;;;;;;;4995173;28;8940;-76
2022/08/12 11:35:17;;;;;;;;;5.60;5.60;;;;;;;;4993492;28;8872;-76
2022/08/12 11:37:46;;;;;;;;;6.00;6.00;;;;;;;;4991427;28;8864;-77
2022/08/12 11:40:14;;;;;;;;;7.40;5.40;;;;;;;;4994329;28;8877;-77
2022/08/12 11:42:41;;;;;;;;;3.40;3.40;;;;;;;;4994499;28;8861;-77
2022/08/12 11:45:10;;;;;;;;;7.00;7.00;;;;;;;;4996206;28;9373;-77
2022/08/12 11:47:37;;;;;;;;;7.00;7.00;;;;;;;;4989947;28;8893;-77
2022/08/12 11:50:06;;;;;;;;;8.80;5.40;;;;;;;;4995800;28;8923;-76
2022/08/12 11:52:33;;;;;;;;;6.00;6.00;;;;;;;;4995059;28;8881;-78
2022/08/12 11:55:02;;;;;;;;;5.00;5.00;;;;;;;;4996911;28;8880;-78
2022/08/12 11:57:30;;;;;;;;;6.00;6.00;;;;;;;;4992372;28;9290;-77
2022/08/12 11:59:57;;;;;;;;;6.00;6.00;;;;;;;;4994738;28;8884;-77
2022/08/12 12:02:25;;;;;;;;;5.00;5.00;;;;;;;;4973758;28;8870;-76
2022/08/12 12:04:53;;;;;;;;;6.80;5.20;;;;;;;;4971523;28;8859;-77
2022/08/12 12:07:22;;;;;;;;;6.40;6.40;;;;;;;;4976586;28;8871;-77
2022/08/12 12:09:49;;;;;;;;;6.60;6.60;;;;;;;;4973431;28;8920;-75
2022/08/12 12:12:18;;;;;;;;;5.20;5.20;;;;;;;;4977814;28;8883;-77
2022/08/12 12:14:46;;;;;;;;;7.00;6.20;;;;;;;;4972482;28;8899;-78
2022/08/12 12:17:13;;;;;;;;;12.40;12.40;;;;;;;;4977733;28;8919;-77
2022/08/12 12:19:44;;;;;;;;;5.40;5.40;;;;;;;;4969677;28;9045;-77
2022/08/12 12:22:12;;;;;;;;;7.00;7.00;;;;;;;;4971989;28;8891;-78
2022/08/12 12:24:45;;;;;;;;;9.00;9.00;;;;;;;;4973872;28;9646;-77
2022/08/12 12:27:12;;;;;;;;;7.00;7.00;;;;;;;;4973578;28;8998;-77
2022/08/12 12:29:44;;;;;;;;;7.80;5.80;;;;;;;;4974595;28;8875;-79
2022/08/12 12:32:12;;;;;;;;;4.60;4.60;;;;;;;;4973314;28;8819;-77
2022/08/12 12:34:39;;;;;;;;;5.60;5.60;;;;;;;;4978596;28;8887;-77
2022/08/12 12:37:12;;;;;;;;;5.80;5.80;;;;;;;;4975668;28;9617;-77
2022/08/12 12:39:43;;;;;;;;;7.80;7.80;;;;;;;;4978628;28;9017;-88
2022/08/12 12:42:10;;;;;;;;;6.20;5.00;;;;;;;;4976077;28;8867;-85
2022/08/12 12:44:40;;;;;;;;;5.20;5.20;;;;;;;;4981451;28;9005;-84
2022/08/12 12:47:10;;;;;;;;;5.40;5.40;;;;;;;;4978380;28;8867;-86
2022/08/12 12:49:40;;;;;;;;;5.00;5.00;;;;;;;;4978442;28;8913;-88
2022/08/12 12:52:07;;;;;;;;;7.00;5.00;;;;;;;;4982790;28;8871;-81
2022/08/12 12:54:51;;;;;;;;;4.20;4.20;;;;;;;;4975286;28;8878;-82
2022/08/12 12:57:18;;;;;;;;;5.40;3.60;;;;;;;;4978705;28;8922;-88
2022/08/12 13:00:13;;;;;;;;;5.20;5.20;;;;;;;;4980990;28;8945;-83
2022/08/12 13:02:39;;;;;;;;;4.00;4.00;;;;;;;;4977786;28;8867;-84
2022/08/12 13:05:09;;;;;;;;;5.00;5.00;;;;;;;;4977999;28;9696;-82
2022/08/12 13:07:40;;;;;;;;;5.20;5.20;;;;;;;;4980066;28;8886;-83
2022/08/12 13:10:14;;;;;;;;;6.20;6.20;;;;;;;;4977851;28;8875;-85
2022/08/12 13:12:42;;;;;;;;;7.00;5.00;;;;;;;;4972795;28;8886;-81
2022/08/12 13:15:14;;;;;;;;;4.60;4.60;;;;;;;;4966684;28;8873;-77
2022/08/12 13:17:46;;;;;;;;;6.20;5.00;;;;;;;;4972908;28;8913;-78
2022/08/12 13:20:16;;;;;;;;;6.40;5.20;;;;;;;;4977171;28;9026;-78
2022/08/12 13:22:50;;;;;;;;;8.20;6.80;;;;;;;;4976664;28;8973;-78
2022/08/12 13:25:19;;;;;;;;;4.80;4.80;;;;;;;;4973344;28;8907;-80
2022/08/12 13:27:48;;;;;;;;;6.20;4.80;;;;;;;;4974431;28;8869;-80
2022/08/12 13:30:19;;;;;;;;;5.80;5.60;;;;;;;;4977932;28;8988;-79
2022/08/12 13:32:56;;;;;;;;;5.60;5.60;;;;;;;;4997670;28;8872;-76
2022/08/12 13:35:23;;;;;;;;;5.60;4.80;;;;;;;;4997948;28;8868;-80
2022/08/12 13:37:52;;;;;;;;;5.40;5.40;;;;;;;;5002336;28;8887;-80
2022/08/12 13:40:20;;;;;;;;;4.40;4.20;;;;;;;;4991695;28;8881;-80
2022/08/12 13:42:48;;;;;;;;;3.20;3.20;;;;;;;;4995667;28;8916;-78
2022/08/12 13:45:16;;;;;;;;;4.80;4.80;;;;;;;;5001581;28;8926;-88
2022/08/12 13:48:18;;;;;;;;;5.20;5.20;;;;;;;;5003400;28;8996;-86
2022/08/12 13:50:59;;;;;;;;;6.00;6.00;;;;;;;;5001886;28;8989;-85
2022/08/12 13:53:27;;;;;;;;;4.80;4.80;;;;;;;;5001640;28;8887;-84
2022/08/12 13:55:59;;;;;;;;;5.40;5.40;;;;;;;;4997611;28;8865;-85
2022/08/12 13:58:26;;;;;;;;;5.40;5.40;;;;;;;;5001185;28;9374;-78
2022/08/12 14:00:56;;;;;;;;;5.60;5.60;;;;;;;;5000696;28;8850;-80
2022/08/12 14:03:25;;;;;;;;;5.60;5.60;;;;;;;;4994468;28;8864;-77
2022/08/12 14:05:54;;;;;;;;;5.20;5.20;;;;;;;;5000866;28;8973;-76
2022/08/12 14:08:22;;;;;;;;;5.60;5.60;;;;;;;;5001481;28;8864;-77
2022/08/12 14:10:52;;;;;;;;;5.40;3.80;;;;;;;;5003235;28;8930;-78
2022/08/12 14:13:23;;;;;;;;;7.00;5.20;;;;;;;;5003221;28;8953;-77
2022/08/12 14:15:52;;;;;;;;;7.60;6.20;;;;;;;;4996896;28;8891;-79
2022/08/12 14:18:21;;;;;;;;;5.20;5.20;;;;;;;;4998189;28;8906;-78
2022/08/12 14:20:52;;;;;;;;;2.20;2.20;;;;;;;;4998487;28;8903;-76
2022/08/12 14:23:23;;;;;;;;;5.40;4.00;;;;;;;;5000046;28;8923;-77
2022/08/12 14:25:50;;;;;;;;;4.50;4.50;;;;;;;;4998341;28;8892;-77
2022/08/12 14:28:19;;;;;;;;;4.00;4.00;;;;;;;;4999404;28;8872;-78
2022/08/12 14:30:52;;;;;;;;;7.00;7.00;;;;;;;;4996505;28;8838;-76
2022/08/12 14:33:20;;;;;;;;;5.75;5.75;;;;;;;;4999136;28;8893;-80
2022/08/12 14:35:49;;;;;;;;;5.00;5.00;;;;;;;;5002879;28;8914;-80
2022/08/12 14:38:20;;;;;;;;;5.00;5.00;;;;;;;;5001181;28;8894;-79
2022/08/12 14:40:49;;;;;;;;;4.00;4.00;;;;;;;;4999259;28;8894;-81
2022/08/12 14:43:16;;;;;;;;;4.20;4.20;;;;;;;;5004588;28;8876;-79
2022/08/12 14:45:44;;;;;;;;;5.60;5.60;;;;;;;;5000775;28;8903;-79
2022/08/12 14:48:13;;;;;;;;;3.20;3.20;;;;;;;;5000300;28;8962;-80
2022/08/12 14:53:35;;;;;;;;;5.00;5.00;;;;;;;;4996945;28;8888;-81
2022/08/12 14:56:03;;;;;;;;;4.60;4.60;;;;;;;;4997771;28;9606;-87
2022/08/12 14:58:31;;;;;;;;;4.00;4.00;;;;;;;;5002190;28;8914;-81
2022/08/12 15:03:44;;;;;;;;;6.20;6.20;;;;;;;;4998173;28;8840;-78
2022/08/12 15:06:12;;;;;;;;;5.60;5.60;;;;;;;;5000469;28;8884;-80
2022/08/12 15:08:42;;;;;;;;;6.40;5.20;;;;;;;;5000933;28;9757;-82
2022/08/12 15:11:12;;;;;;;;;5.20;5.20;;;;;;;;4999307;28;8904;-78
2022/08/12 15:13:40;;;;;;;;;6.40;6.40;;;;;;;;4999714;28;8872;-79
2022/08/12 15:16:09;;;;;;;;;4.00;4.00;;;;;;;;5000613;28;8884;-76
2022/08/12 15:18:37;;;;;;;;;5.00;5.00;;;;;;;;5003142;28;8883;-79
2022/08/12 15:21:08;;;;;;;;;4.20;4.20;;;;;;;;5000576;28;9535;-77
2022/08/12 15:23:37;;;;;;;;;6.60;6.60;;;;;;;;5001670;28;8885;-76
2022/08/12 15:26:10;;;;;;;;;5.60;5.60;;;;;;;;4995779;28;8853;-76
2022/08/12 15:28:40;;;;;;;;;7.00;7.00;;;;;;;;4998404;28;8967;-76
2022/08/12 15:31:12;;;;;;;;;7.40;6.20;;;;;;;;4997702;28;8801;-79
2022/08/12 15:33:42;;;;;;;;;6.60;6.60;;;;;;;;4996685;28;8896;-83
2022/08/12 15:36:09;;;;;;;;;7.00;7.00;;;;;;;;5002263;28;9607;-78
2022/08/12 15:38:38;;;;;;;;;5.60;5.60;;;;;;;;5001247;28;8865;-79
2022/08/12 15:41:10;;;;;;;;;6.20;6.20;;;;;;;;4999111;28;9777;-76
2022/08/12 15:43:37;;;;;;;;;5.40;5.40;;;;;;;;4999608;28;8874;-76
2022/08/12 15:46:07;;;;;;;;;5.60;5.00;;;;;;;;5000683;28;8864;-77
2022/08/12 15:48:42;;;;;;;;;5.00;5.00;;;;;;;;5000711;28;8876;-76
2022/08/12 15:51:10;;;;;;;;;5.20;5.20;;;;;;;;4998481;28;8885;-77
2022/08/12 15:56:24;;;;;;;;;6.00;6.00;;;;;;;;5000376;28;8832;-77
2022/08/12 15:58:51;;;;;;;;;5.00;5.00;;;;;;;;5001139;28;8861;-76
2022/08/12 16:01:19;;;;;;;;;6.00;6.00;;;;;;;;4999832;28;9705;-76
2022/08/12 16:03:52;;;;;;;;;7.40;7.40;;;;;;;;5001534;28;8899;-76
2022/08/12 16:06:19;;;;;;;;;4.40;4.40;;;;;;;;4997336;28;8876;-76
2022/08/12 16:08:46;;;;;;;;;6.00;6.00;;;;;;;;5000950;28;9003;-76
2022/08/12 16:11:16;;;;;;;;;5.00;5.00;;;;;;;;4998642;28;8987;-76
2022/08/12 16:13:45;;;;;;;;;5.00;5.00;;;;;;;;5000827;28;8884;-76
2022/08/12 16:16:13;;;;;;;;;5.20;5.20;;;;;;;;4999108;28;8864;-76
2022/08/12 16:18:41;;;;;;;;;4.80;4.80;;;;;;;;4999178;28;8872;-76
2022/08/12 16:21:10;;;;;;;;;6.20;6.20;;;;;;;;4997275;28;8883;-76
2022/08/12 16:23:44;;;;;;;;;4.60;4.60;;;;;;;;4999864;28;8891;-78
2022/08/12 16:26:12;;;;;;;;;6.00;6.00;;;;;;;;5002281;28;8865;-76
2022/08/12 16:28:39;;;;;;;;;5.00;5.00;;;;;;;;5001305;28;8880;-76
2022/08/12 16:31:14;;;;;;;;;5.40;5.40;;;;;;;;5001755;28;8857;-76
2022/08/12 16:33:42;;;;;;;;;5.00;5.00;;;;;;;;4998338;28;9710;-76
2022/08/12 16:36:12;;;;;;;;;4.80;4.80;;;;;;;;5001224;28;8880;-77
2022/08/12 16:38:42;;;;;;;;;5.20;5.20;;;;;;;;5001110;28;8888;-76
2022/08/12 16:41:15;;;;;;;;;4.00;4.00;;;;;;;;5001143;28;9666;-76
2022/08/12 16:43:43;;;;;;;;;6.20;6.20;;;;;;;;5001843;28;9998;-76
2022/08/12 16:46:13;;;;;;;;;6.00;6.00;;;;;;;;4999892;28;8942;-76
2022/08/12 16:48:40;;;;;;;;;6.00;6.00;;;;;;;;5002346;28;8949;-76
2022/08/12 16:51:11;;;;;;;;;4.60;4.60;;;;;;;;5001532;28;8925;-76
2022/08/12 16:53:40;;;;;;;;;6.60;6.60;;;;;;;;5000271;28;8904;-76
2022/08/12 16:56:11;;;;;;;;;4.60;4.60;;;;;;;;5001832;28;8965;-76
2022/08/12 16:58:38;;;;;;;;;6.60;6.60;;;;;;;;4999997;28;8887;-76
2022/08/12 17:01:10;;;;;;;;;4.60;4.60;;;;;;;;5000678;28;8816;-75
2022/08/12 17:03:42;;;;;;;;;6.00;6.00;;;;;;;;4997200;28;8949;-76